Terminal Aerodrome Forecast
Issued by NWS

Home | Current Version | Previous Version | Text Only | Print | Product List | Glossary On
Versions: 1 2 3 4 5 6 7 8 9 10 11 12 13 14 15 16 17
000
FTAK31 PANC 220541
TAFAHO
TAF
PAHO 220541Z 2206/2306 05007KT P6SM SCT025 BKN050
     FM221200 03004KT P6SM VCSH BKN035
     FM230000 01005KT 6SM -SN BKN025
     FM230500 03005KT 4SM -SN BKN015=

USA.gov is the U.S. government's official web portal to all federal, state and local government web resources and services.